Time;durP1;ratioP1;P1;durP2;ratioP2;P2;SDS_P1;SDS_P2;PMS_P1;PMS_P2;Temp;Humidity;BMP_temperature;BMP_pressure;BME280_temperature;BME280_humidity;BME280_pressure;Samples;Min_cycle;Max_cycle;Signal;HPM_P1;HPM_P2
2023/04/03 00:01:35;;;;;;;1.33;0.65;;;;;;;8.95;38.90;92203.50;5097040;28;20535;-78
2023/04/03 00:04:00;;;;;;;0.60;0.60;;;;;;;8.91;38.91;92200.66;5114569;28;20035;-77
2023/04/03 00:06:26;;;;;;;0.70;0.70;;;;;;;8.95;39.29;92187.84;5115370;28;20100;-77
2023/04/03 00:08:52;;;;;;;0.50;0.50;;;;;;;8.92;39.23;92197.00;5115097;28;20031;-77
2023/04/03 00:11:18;;;;;;;0.55;0.55;;;;;;;8.86;39.04;92186.91;5115299;28;20247;-77
2023/04/03 00:13:44;;;;;;;0.52;0.52;;;;;;;8.86;39.25;92200.75;5115469;28;20564;-78
2023/04/03 00:16:11;;;;;;;1.38;0.80;;;;;;;8.87;38.66;92204.91;5079817;28;20035;-78
2023/04/03 00:18:38;;;;;;;0.95;0.70;;;;;;;8.91;39.03;92205.13;5115653;28;20028;-77
2023/04/03 00:21:06;;;;;;;0.40;0.40;;;;;;;8.88;39.15;92206.47;5114054;28;20066;-77
2023/04/03 00:23:32;;;;;;;0.73;0.70;;;;;;;8.91;39.12;92202.50;5114052;28;20218;-77
2023/04/03 00:25:57;;;;;;;0.63;0.63;;;;;;;8.88;39.45;92203.84;5095411;28;20031;-77
2023/04/03 00:28:23;;;;;;;0.55;0.55;;;;;;;8.94;38.94;92194.91;5112490;28;20435;-77
2023/04/03 00:30:49;;;;;;;0.60;0.60;;;;;;;8.88;39.48;92216.91;5095497;28;20039;-77
2023/04/03 00:33:15;;;;;;;0.82;0.80;;;;;;;9.03;38.74;92204.69;5113477;28;20028;-77
2023/04/03 00:35:42;;;;;;;0.60;0.60;;;;;;;8.94;38.92;92205.34;5078496;28;20145;-77
2023/04/03 00:38:08;;;;;;;0.77;0.70;;;;;;;8.82;39.54;92204.97;5095088;28;20052;-77
2023/04/03 00:40:38;;;;;;;0.50;0.50;;;;;;;8.86;39.74;92198.13;5095130;28;20043;-77
2023/04/03 00:43:12;;;;;;;0.50;0.50;;;;;;;8.86;40.05;92203.34;5094840;28;20050;-77
2023/04/03 00:45:41;;;;;;;0.70;0.70;;;;;;;8.91;40.04;92195.44;5094751;28;20056;-77
2023/04/03 00:48:09;;;;;;;0.63;0.60;;;;;;;8.90;39.25;92193.91;5095065;28;20070;-77
2023/04/03 00:50:41;;;;;;;1.02;0.57;;;;;;;8.77;39.81;92188.63;5096180;28;20066;-77
2023/04/03 00:53:11;;;;;;;0.63;0.60;;;;;;;8.79;40.08;92184.66;5113748;28;20488;-78
2023/04/03 00:55:38;;;;;;;0.60;0.60;;;;;;;8.82;39.59;92191.91;5095639;28;20050;-77
2023/04/03 00:58:06;;;;;;;0.75;0.63;;;;;;;8.77;40.08;92186.78;5079102;28;20492;-78
2023/04/03 01:00:32;;;;;;;0.70;0.60;;;;;;;8.79;39.56;92186.50;5095511;28;20043;-78
2023/04/03 01:02:59;;;;;;;0.52;0.52;;;;;;;8.73;40.33;92183.16;5095521;28;20043;-78
2023/04/03 01:05:26;;;;;;;0.90;0.70;;;;;;;8.75;40.10;92175.84;5078951;28;20493;-77
2023/04/03 01:07:52;;;;;;;0.50;0.50;;;;;;;8.79;39.78;92187.28;5095094;28;20038;-77
2023/04/03 01:10:20;;;;;;;0.60;0.60;;;;;;;8.86;39.93;92186.91;5095195;28;20056;-78
2023/04/03 01:12:50;;;;;;;0.90;0.60;;;;;;;8.80;39.86;92182.81;5078410;28;20485;-78
2023/04/03 01:15:18;;;;;;;0.60;0.60;;;;;;;8.87;39.63;92176.22;5078497;28;20038;-78
2023/04/03 01:17:49;;;;;;;0.88;0.75;;;;;;;8.86;39.83;92172.03;5095093;28;20108;-78
2023/04/03 01:20:34;;;;;;;0.60;0.60;;;;;;;8.87;39.88;92176.22;5113658;28;20122;-78
2023/04/03 01:23:09;;;;;;;0.88;0.80;;;;;;;8.88;39.95;92175.13;5094514;28;20059;-78
2023/04/03 01:25:42;;;;;;;0.50;0.50;;;;;;;8.88;40.16;92171.75;5095144;28;20421;-78
2023/04/03 01:28:12;;;;;;;0.60;0.60;;;;;;;8.81;40.32;92164.28;5078265;28;20043;-78
2023/04/03 01:30:47;;;;;;;0.70;0.70;;;;;;;8.78;40.25;92170.06;5113304;28;20046;-78
2023/04/03 01:33:13;;;;;;;0.50;0.50;;;;;;;8.86;40.21;92164.19;5094487;28;20485;-78
2023/04/03 01:35:39;;;;;;;0.70;0.68;;;;;;;8.81;40.19;92168.72;5078116;28;20034;-78
2023/04/03 01:38:04;;;;;;;0.50;0.50;;;;;;;8.76;40.01;92161.75;5078323;28;20039;-78
2023/04/03 01:40:30;;;;;;;0.73;0.57;;;;;;;8.77;40.89;92168.50;5095230;28;20080;-78
2023/04/03 01:42:56;;;;;;;1.08;0.70;;;;;;;8.66;40.77;92156.66;5094982;28;20043;-78
2023/04/03 01:45:22;;;;;;;1.15;0.70;;;;;;;8.65;41.09;92149.91;5094700;28;20032;-78
2023/04/03 01:47:48;;;;;;;0.60;0.60;;;;;;;8.68;41.53;92159.75;5077705;28;20409;-78
2023/04/03 01:50:13;;;;;;;0.80;0.60;;;;;;;8.66;41.09;92156.66;5094726;28;20543;-78
2023/04/03 01:52:39;;;;;;;0.50;0.50;;;;;;;8.65;41.02;92150.66;5094891;28;20401;-78
2023/04/03 01:55:05;;;;;;;0.50;0.50;;;;;;;8.70;41.40;92150.59;5094540;28;20489;-78
2023/04/03 01:57:32;;;;;;;0.95;0.57;;;;;;;8.58;41.60;92147.63;5094082;28;20063;-78
2023/04/03 01:59:57;;;;;;;1.33;0.93;;;;;;;8.60;41.26;92155.97;5093828;28;20485;-78
2023/04/03 02:02:23;;;;;;;0.70;0.70;;;;;;;8.59;41.39;92148.41;5077190;28;20032;-78
2023/04/03 02:04:51;;;;;;;0.60;0.60;;;;;;;8.62;41.24;92153.81;5078256;28;20031;-78
2023/04/03 02:07:17;;;;;;;0.73;0.73;;;;;;;8.58;41.45;92145.03;5094549;28;20035;-78
2023/04/03 02:09:42;;;;;;;0.40;0.40;;;;;;;8.52;42.00;92157.34;5094771;28;20553;-78
2023/04/03 02:12:08;;;;;;;3.17;0.73;;;;;;;8.49;41.94;92149.31;5093827;28;20035;-77
2023/04/03 02:14:34;;;;;;;0.88;0.70;;;;;;;8.41;42.34;92157.75;5093428;28;20489;-77
2023/04/03 02:17:04;;;;;;;0.50;0.50;;;;;;;8.34;42.38;92155.47;5076746;28;20036;-77
2023/04/03 02:19:31;;;;;;;0.50;0.50;;;;;;;8.37;42.46;92154.91;5111715;28;20066;-77
2023/04/03 02:21:56;;;;;;;0.50;0.50;;;;;;;8.47;41.90;92165.25;5111519;28;20457;-76
2023/04/03 02:24:23;;;;;;;0.60;0.60;;;;;;;8.47;42.44;92154.81;5094110;28;20047;-77
2023/04/03 02:26:48;;;;;;;0.60;0.60;;;;;;;8.43;42.24;92140.78;5078032;28;20034;-77
2023/04/03 02:29:14;;;;;;;0.60;0.60;;;;;;;8.39;42.17;92146.78;5097986;28;20043;-77
2023/04/03 02:31:41;;;;;;;0.60;0.60;;;;;;;8.36;41.94;92150.75;5116913;28;20024;-77
2023/04/03 02:34:07;;;;;;;0.63;0.60;;;;;;;8.30;42.74;92154.47;5080690;28;20497;-77
2023/04/03 02:36:34;;;;;;;0.60;0.60;;;;;;;8.34;42.51;92151.03;5098275;28;20031;-77
2023/04/03 02:39:04;;;;;;;0.60;0.60;;;;;;;8.30;42.46;92141.44;5097616;28;20532;-77
2023/04/03 02:41:34;;;;;;;0.70;0.70;;;;;;;8.30;42.47;92149.25;5097659;28;20028;-78
2023/04/03 02:44:03;;;;;;;0.60;0.60;;;;;;;8.36;42.70;92147.38;5097721;28;20471;-78
2023/04/03 02:46:28;;;;;;;1.13;0.80;;;;;;;8.37;42.48;92149.69;5094358;28;20059;-78
2023/04/03 02:48:55;;;;;;;0.75;0.70;;;;;;;8.43;42.02;92148.59;5094979;28;20040;-78
2023/04/03 02:51:22;;;;;;;0.85;0.80;;;;;;;8.48;42.08;92138.09;5094155;28;20084;-78
2023/04/03 02:53:49;;;;;;;0.50;0.50;;;;;;;8.36;42.44;92131.72;5093946;28;20039;-77
2023/04/03 02:56:20;;;;;;;0.60;0.50;;;;;;;8.24;42.41;92137.31;5093787;28;20056;-77
2023/04/03 02:58:46;;;;;;;0.80;0.80;;;;;;;8.22;42.94;92131.59;5094817;28;20047;-77
2023/04/03 03:01:11;;;;;;;0.50;0.50;;;;;;;8.19;42.85;92138.16;5094535;28;20028;-77
2023/04/03 03:03:38;;;;;;;0.38;0.38;;;;;;;8.30;42.54;92142.19;5093582;28;20433;-76
2023/04/03 03:06:06;;;;;;;0.60;0.60;;;;;;;8.24;42.83;92140.72;5093322;28;20036;-76
2023/04/03 03:08:32;;;;;;;0.60;0.60;;;;;;;8.23;42.47;92133.94;5094379;28;20054;-78
2023/04/03 03:10:58;;;;;;;1.77;0.80;;;;;;;8.21;42.34;92125.63;5077519;28;20024;-78
2023/04/03 03:13:24;;;;;;;0.52;0.52;;;;;;;8.22;42.52;92140.22;5094170;28;20043;-78
2023/04/03 03:15:50;;;;;;;0.70;0.70;;;;;;;8.28;42.56;92125.28;5077481;28;20032;-78
2023/04/03 03:18:17;;;;;;;0.60;0.60;;;;;;;8.23;42.80;92141.00;5094579;28;20132;-78
2023/04/03 03:20:44;;;;;;;0.95;0.75;;;;;;;8.23;42.18;92135.78;5095627;28;20414;-77
2023/04/03 03:23:10;;;;;;;0.60;0.60;;;;;;;8.23;42.79;92131.34;5095117;28;20040;-78
2023/04/03 03:25:40;;;;;;;0.57;0.57;;;;;;;8.15;42.71;92137.19;5095587;28;20043;-77
2023/04/03 03:28:07;;;;;;;0.73;0.60;;;;;;;8.17;43.37;92129.06;5094449;28;20116;-77
2023/04/03 03:30:35;;;;;;;0.60;0.60;;;;;;;8.30;42.50;92120.56;5077065;28;20027;-78
2023/04/03 03:33:01;;;;;;;0.40;0.40;;;;;;;8.19;42.64;92126.97;5093780;28;20046;-78
2023/04/03 03:35:26;;;;;;;0.50;0.50;;;;;;;8.36;41.70;92121.28;5094070;28;20111;-78
2023/04/03 03:37:52;;;;;;;0.82;0.70;;;;;;;8.24;42.09;92119.06;5092977;28;20577;-78
2023/04/03 03:40:17;;;;;;;0.47;0.47;;;;;;;8.38;41.64;92114.72;5093848;28;20028;-78
2023/04/03 03:42:43;;;;;;;0.50;0.50;;;;;;;8.31;41.87;92124.75;5094007;28;20036;-78
2023/04/03 03:45:09;;;;;;;0.50;0.50;;;;;;;8.24;41.77;92126.88;5076847;28;20497;-78
2023/04/03 03:47:35;;;;;;;0.47;0.47;;;;;;;8.17;42.11;92124.63;5093131;28;20051;-78
2023/04/03 03:50:02;;;;;;;1.02;0.70;;;;;;;8.18;42.10;92130.63;5093718;28;20455;-78
2023/04/03 03:52:29;;;;;;;0.50;0.50;;;;;;;8.26;41.98;92122.19;5093568;28;20047;-78
2023/04/03 03:54:55;;;;;;;0.80;0.70;;;;;;;8.19;41.66;92126.97;5093586;28;20024;-78
2023/04/03 03:57:21;;;;;;;0.60;0.60;;;;;;;8.38;41.64;92119.19;5094316;28;20145;-78
2023/04/03 03:59:48;;;;;;;0.63;0.63;;;;;;;8.39;41.90;92131.91;5092610;28;20036;-78
2023/04/03 04:02:16;;;;;;;0.50;0.50;;;;;;;8.48;41.35;92127.66;5093575;28;20060;-78
2023/04/03 04:04:43;;;;;;;0.43;0.43;;;;;;;8.31;41.83;92127.34;5093379;28;20032;-78
2023/04/03 04:07:09;;;;;;;0.68;0.50;;;;;;;8.42;41.56;92130.59;5093699;28;20036;-78
2023/04/03 04:09:34;;;;;;;0.80;0.80;;;;;;;8.31;41.33;92124.75;5094527;28;20042;-78
2023/04/03 04:12:00;;;;;;;1.00;0.60;;;;;;;8.25;41.85;92136.28;5092822;28;20516;-76
2023/04/03 04:14:27;;;;;;;0.60;0.60;;;;;;;8.39;41.75;92131.91;5076186;28;20036;-77
2023/04/03 04:16:53;;;;;;;0.60;0.60;;;;;;;8.41;41.86;92142.13;5091936;28;20362;-76
2023/04/03 04:19:23;;;;;;;0.98;0.60;;;;;;;8.30;42.27;92138.81;5091928;28;20036;-76
2023/04/03 04:21:49;;;;;;;0.75;0.75;;;;;;;8.06;42.77;92138.84;5092522;28;20386;-78
2023/04/03 04:24:15;;;;;;;0.50;0.50;;;;;;;8.05;42.29;92143.28;5094043;28;20505;-77
2023/04/03 04:26:41;;;;;;;0.65;0.65;;;;;;;8.14;41.66;92131.19;5092067;28;20097;-77
2023/04/03 04:29:10;;;;;;;0.85;0.65;;;;;;;8.22;42.58;92135.00;5091655;28;20040;-77
2023/04/03 04:31:36;;;;;;;0.60;0.60;;;;;;;8.20;41.62;92128.53;5091395;28;20115;-77
2023/04/03 04:34:02;;;;;;;0.95;0.60;;;;;;;8.03;42.95;92136.78;5091611;28;20035;-77
2023/04/03 04:36:28;;;;;;;0.52;0.52;;;;;;;8.01;42.24;92144.88;5092024;28;20042;-77
2023/04/03 04:38:54;;;;;;;0.70;0.70;;;;;;;8.12;41.60;92138.50;5091719;28;20496;-77
2023/04/03 04:41:24;;;;;;;0.60;0.60;;;;;;;8.20;42.63;92133.75;5091445;28;20077;-76
2023/04/03 04:43:52;;;;;;;0.50;0.50;;;;;;;8.06;43.14;92131.81;5092271;28;20468;-77
2023/04/03 04:46:18;;;;;;;0.50;0.50;;;;;;;8.24;42.16;92113.84;5091638;28;20502;-77
2023/04/03 04:48:50;;;;;;;0.77;0.60;;;;;;;8.06;42.70;92123.19;5091876;28;20047;-77
2023/04/03 04:51:20;;;;;;;0.98;0.60;;;;;;;7.91;43.17;92124.16;5090813;28;20081;-77
2023/04/03 04:53:48;;;;;;;0.77;0.77;;;;;;;7.81;42.95;92121.66;5092858;28;20123;-77
2023/04/03 04:56:16;;;;;;;0.60;0.60;;;;;;;8.03;42.77;92127.13;5075465;28;20039;-76
2023/04/03 04:58:43;;;;;;;0.60;0.60;;;;;;;7.99;42.65;92115.72;5081987;28;20123;-80
2023/04/03 05:01:10;;;;;;;0.40;0.40;;;;;;;7.97;42.74;92123.06;5076195;28;20059;-80
2023/04/03 05:03:44;;;;;;;0.40;0.40;;;;;;;7.92;42.86;92126.50;5071238;28;20035;-78
2023/04/03 05:06:10;;;;;;;0.55;0.55;;;;;;;7.82;43.36;92121.38;5092986;28;20394;-79
2023/04/03 05:08:36;;;;;;;0.50;0.50;;;;;;;7.95;42.49;92122.56;5079836;28;20529;-80
2023/04/03 05:11:03;;;;;;;0.60;0.60;;;;;;;8.12;42.57;92122.09;5078956;28;20040;-80
2023/04/03 05:13:29;;;;;;;0.68;0.68;;;;;;;8.03;42.26;92127.13;5072676;28;20108;-80
2023/04/03 05:16:04;;;;;;;0.82;0.70;;;;;;;8.03;44.19;92132.34;5092868;28;20175;-81
2023/04/03 05:18:31;;;;;;;0.63;0.60;;;;;;;7.87;43.11;92142.16;5092235;28;20036;-80
2023/04/03 05:21:01;;;;;;;0.52;0.52;;;;;;;7.85;43.36;92143.50;5091686;28;20024;-83
2023/04/03 05:23:29;;;;;;;0.50;0.50;;;;;;;8.12;42.16;92132.50;5076197;28;20043;-80
2023/04/03 05:26:41;;;;;;;0.50;0.50;;;;;;;8.22;42.58;92142.03;5076520;28;20137;-81
2023/04/03 05:29:11;;;;;;;0.65;0.60;;;;;;;8.46;41.48;92142.81;5074292;28;20088;-80
2023/04/03 05:31:38;;;;;;;0.40;0.40;;;;;;;8.57;41.27;92132.25;5075357;28;20086;-81
2023/04/03 05:34:06;;;;;;;0.68;0.60;;;;;;;8.55;41.73;92141.13;5097991;28;20040;-83
2023/04/03 05:36:35;;;;;;;0.60;0.60;;;;;;;8.73;40.98;92138.81;5095374;28;20036;-81
2023/04/03 05:39:06;;;;;;;0.57;0.57;;;;;;;8.72;41.58;92145.09;5094689;28;20115;-80
2023/04/03 05:41:35;;;;;;;0.57;0.57;;;;;;;8.86;41.23;92135.47;5094481;28;20044;-78
2023/04/03 05:44:00;;;;;;;0.50;0.50;;;;;;;8.97;41.13;92136.13;5077855;28;20036;-80
2023/04/03 05:46:27;;;;;;;0.60;0.60;;;;;;;9.04;41.73;92136.53;5094313;28;20079;-80
2023/04/03 05:48:55;;;;;;;0.50;0.50;;;;;;;9.11;41.42;92141.38;5077874;28;20043;-80
2023/04/03 05:51:32;;;;;;;0.82;0.70;;;;;;;9.25;40.52;92131.75;5061739;28;20028;-80
2023/04/03 05:54:10;;;;;;;0.40;0.40;;;;;;;9.52;40.73;92135.50;5095419;28;20036;-81
2023/04/03 05:56:35;;;;;;;0.70;0.70;;;;;;;9.64;41.03;92143.66;5074056;28;20039;-77
2023/04/03 05:59:01;;;;;;;0.60;0.60;;;;;;;9.77;40.61;92140.28;5091672;28;20032;-77
2023/04/03 06:01:28;;;;;;;0.60;0.60;;;;;;;9.84;40.81;92133.91;5090236;28;20048;-77
2023/04/03 06:03:55;;;;;;;0.50;0.50;;;;;;;10.24;39.51;92149.88;5092339;28;20081;-77
2023/04/03 06:06:43;;;;;;;0.50;0.50;;;;;;;11.61;37.52;92145.34;5093025;28;20070;-77
2023/04/03 06:09:11;;;;;;;0.50;0.50;;;;;;;12.92;36.19;92151.78;5091877;28;20379;-77
2023/04/03 06:11:38;;;;;;;0.60;0.60;;;;;;;13.96;33.66;92140.44;5091864;28;20397;-77
2023/04/03 06:14:04;;;;;;;0.60;0.60;;;;;;;14.93;32.69;92141.53;5075709;28;20036;-77
2023/04/03 06:16:30;;;;;;;0.60;0.60;;;;;;;15.62;31.89;92143.56;5092277;28;20400;-78
2023/04/03 06:19:00;;;;;;;1.25;0.80;;;;;;;16.26;29.73;92149.47;5092704;28;20102;-77
2023/04/03 06:21:26;;;;;;;0.75;0.75;;;;;;;16.75;29.76;92138.09;5091474;28;20077;-77
2023/04/03 06:23:52;;;;;;;0.57;0.57;;;;;;;17.17;28.86;92143.13;5075115;28;20036;-77
2023/04/03 06:26:20;;;;;;;1.08;0.50;;;;;;;17.26;28.06;92141.13;5093043;28;20063;-77
2023/04/03 06:28:48;;;;;;;0.30;0.30;;;;;;;17.87;28.46;92137.47;5075105;28;20153;-77
2023/04/03 06:31:16;;;;;;;1.23;0.75;;;;;;;18.39;27.18;92136.50;5092369;28;20024;-77
2023/04/03 06:33:41;;;;;;;0.47;0.47;;;;;;;18.68;26.29;92137.16;5091101;28;20067;-77
2023/04/03 06:36:08;;;;;;;0.35;0.35;;;;;;;19.08;26.23;92138.81;5091954;28;20059;-77
2023/04/03 06:38:35;;;;;;;1.27;0.50;;;;;;;19.54;24.96;92131.81;5091098;28;20032;-77
2023/04/03 06:41:01;;;;;;;0.40;0.40;;;;;;;20.18;24.15;92144.72;5092011;28;20528;-77
2023/04/03 06:43:28;;;;;;;0.63;0.57;;;;;;;20.28;23.38;92152.09;5074444;28;20057;-78
2023/04/03 06:45:53;;;;;;;0.30;0.30;;;;;;;20.03;24.59;92142.94;5097707;28;20055;-77
2023/04/03 06:48:25;;;;;;;0.47;0.47;;;;;;;20.25;23.04;92138.78;5094488;28;20485;-77
2023/04/03 06:50:51;;;;;;;0.65;0.50;;;;;;;20.23;24.37;92138.34;5112826;28;20046;-77
2023/04/03 06:53:16;;;;;;;1.20;0.80;;;;;;;21.03;23.59;92149.09;5094933;28;20024;-77
2023/04/03 06:55:42;;;;;;;0.50;0.50;;;;;;;21.49;22.14;92143.66;5112945;28;20039;-77
2023/04/03 06:58:07;;;;;;;1.15;0.60;;;;;;;21.72;22.46;92141.63;5113399;28;20028;-79
2023/04/03 07:00:34;;;;;;;1.08;0.70;;;;;;;22.21;21.99;92132.66;5078998;28;20043;-79
2023/04/03 07:03:02;;;;;;;0.77;0.50;;;;;;;21.14;21.95;92140.16;5095965;28;20055;-80
2023/04/03 07:05:28;;;;;;;0.30;0.30;;;;;;;21.30;20.67;92129.31;5073482;28;20036;-80
2023/04/03 07:07:53;;;;;;;0.40;0.40;;;;;;;21.16;22.29;92143.19;5075170;28;20138;-81
2023/04/03 07:10:19;;;;;;;2.67;0.65;;;;;;;21.35;21.87;92138.88;5110981;28;20042;-80
2023/04/03 07:13:01;;;;;;;0.95;0.47;;;;;;;20.98;22.13;92137.66;5095770;28;20106;-79
2023/04/03 07:15:31;;;;;;;6.88;0.73;;;;;;;20.38;22.70;92142.78;5079597;28;20036;-79
2023/04/03 07:17:57;;;;;;;2.22;0.60;;;;;;;20.25;23.46;92141.44;5097646;28;20028;-79
2023/04/03 07:20:23;;;;;;;0.57;0.40;;;;;;;19.48;22.48;92141.16;5104090;28;20509;-78
2023/04/03 07:22:50;;;;;;;0.60;0.40;;;;;;;19.09;24.44;92145.66;5095934;28;20107;-80
2023/04/03 07:25:17;;;;;;;0.50;0.40;;;;;;;18.64;25.59;92134.44;5095255;28;20039;-78
2023/04/03 07:27:54;;;;;;;0.50;0.40;;;;;;;18.01;24.83;92158.25;5062604;28;20032;-79
2023/04/03 07:30:20;;;;;;;0.20;0.20;;;;;;;18.12;24.62;92161.19;5061710;28;20115;-78
2023/04/03 07:32:46;;;;;;;0.30;0.30;;;;;;;17.62;24.62;92148.16;5115794;28;20028;-77
2023/04/03 07:35:18;;;;;;;0.82;0.57;;;;;;;17.19;25.45;92152.28;5114208;28;20046;-76
2023/04/03 07:37:46;;;;;;;0.30;0.30;;;;;;;17.28;24.75;92146.84;5098311;28;20141;-78
2023/04/03 07:43:49;;;;;;;0.45;0.32;;;;;;;16.83;26.41;92145.19;5117952;28;20443;-79
2023/04/03 07:46:18;;;;;;;1.45;0.50;;;;;;;17.12;25.59;92152.06;5116744;28;20119;-77
2023/04/03 07:48:45;;;;;;;0.57;0.52;;;;;;;16.91;25.14;92144.31;5116751;28;20378;-77
2023/04/03 07:51:10;;;;;;;0.45;0.45;;;;;;;16.00;24.90;92145.22;5117113;28;20028;-78
2023/04/03 07:53:46;;;;;;;1.77;0.57;;;;;;;15.54;27.64;92151.59;5098280;28;20032;-78
2023/04/03 07:59:58;;;;;;;0.40;0.40;;;;;;;16.66;26.16;92146.16;5118660;28;20062;-78
2023/04/03 08:02:26;;;;;;;0.40;0.40;;;;;;;16.73;25.65;92135.81;5083306;28;20043;-79
2023/04/03 08:05:21;;;;;;;1.08;0.40;;;;;;;16.82;25.02;92139.13;5099620;28;20069;-78
2023/04/03 08:07:48;;;;;;;0.40;0.40;;;;;;;16.09;24.72;92149.66;5117497;28;20039;-78
2023/04/03 08:10:18;;;;;;;0.40;0.40;;;;;;;15.64;25.69;92140.63;5117074;28;20446;-78
2023/04/03 08:13:09;;;;;;;0.60;0.60;;;;;;;16.01;27.70;92136.22;5116971;28;20044;-77
2023/04/03 08:15:51;;;;;;;0.43;0.43;;;;;;;15.90;26.85;92143.03;5098541;28;20043;-79
2023/04/03 08:18:21;;;;;;;0.50;0.50;;;;;;;16.07;26.40;92141.28;5097741;28;20043;-77
2023/04/03 08:20:52;;;;;;;0.55;0.50;;;;;;;16.03;27.43;92136.69;5097333;28;20023;-77
2023/04/03 08:23:19;;;;;;;0.60;0.60;;;;;;;16.21;27.10;92142.53;5115614;28;20047;-78
2023/04/03 08:25:49;;;;;;;0.50;0.50;;;;;;;16.43;26.76;92140.53;5114719;28;20096;-78
2023/04/03 08:28:21;;;;;;;0.30;0.30;;;;;;;16.51;26.04;92138.91;5115882;28;20393;-78
2023/04/03 08:30:50;;;;;;;0.30;0.30;;;;;;;16.45;24.88;92144.41;5116285;28;20108;-78
2023/04/03 08:33:17;;;;;;;0.50;0.50;;;;;;;16.58;24.42;92147.06;5097672;28;20028;-77
2023/04/03 08:35:45;;;;;;;0.50;0.50;;;;;;;16.49;26.51;92141.13;5097260;28;20038;-78
2023/04/03 08:38:10;;;;;;;0.40;0.40;;;;;;;16.73;25.25;92127.88;5115681;28;20020;-77
2023/04/03 08:40:41;;;;;;;1.55;0.52;;;;;;;16.70;24.79;92130.41;5097485;28;20084;-78
2023/04/03 08:43:40;;;;;;;0.40;0.40;;;;;;;16.91;25.15;92128.44;5115823;28;20040;-78
2023/04/03 08:46:13;;;;;;;0.50;0.50;;;;;;;16.63;25.24;92123.81;5093449;28;20135;-76
2023/04/03 08:48:58;;;;;;;0.30;0.30;;;;;;;16.39;25.64;92126.44;5094887;28;20043;-76
2023/04/03 08:51:29;;;;;;;0.52;0.52;;;;;;;16.43;25.78;92132.63;5093997;28;20039;-78
2023/04/03 08:54:07;;;;;;;0.60;0.60;;;;;;;16.55;25.40;92126.56;5094916;28;20513;-77
2023/04/03 08:56:35;;;;;;;0.50;0.50;;;;;;;16.37;22.97;92118.09;5093271;28;20389;-77
2023/04/03 08:59:07;;;;;;;0.50;0.50;;;;;;;16.55;24.09;92108.06;5093574;28;20043;-77
2023/04/03 09:01:39;;;;;;;1.58;0.47;;;;;;;16.51;24.69;92123.81;5094558;28;20115;-78
2023/04/03 09:04:15;;;;;;;0.50;0.50;;;;;;;16.79;25.45;92112.56;5094660;28;20032;-77
2023/04/03 09:06:57;;;;;;;0.40;0.40;;;;;;;16.85;24.75;92111.25;5094900;28;20036;-78
2023/04/03 09:09:36;;;;;;;0.63;0.60;;;;;;;17.08;22.90;92114.19;5094781;28;20036;-77
2023/04/03 09:12:25;;;;;;;0.50;0.50;;;;;;;16.97;25.21;92118.41;5094409;28;20038;-77
2023/04/03 09:15:01;;;;;;;0.65;0.55;;;;;;;16.96;25.59;92112.34;5094338;28;20039;-77
2023/04/03 09:17:34;;;;;;;0.35;0.35;;;;;;;16.55;24.52;92102.78;5093011;28;20089;-77
2023/04/03 09:20:30;;;;;;;0.40;0.40;;;;;;;16.47;24.36;92117.66;5094011;28;20036;-77
2023/04/03 09:23:32;;;;;;;0.40;0.40;;;;;;;16.70;24.45;92109.28;5093558;28;20522;-78
2023/04/03 09:26:07;;;;;;;0.40;0.40;;;;;;;16.65;25.19;92118.97;5093424;28;20109;-77
2023/04/03 09:28:39;;;;;;;0.60;0.60;;;;;;;16.24;25.18;92115.47;5093578;28;20032;-77
2023/04/03 09:31:19;;;;;;;0.47;0.47;;;;;;;16.38;23.70;92096.63;5093309;28;20036;-77
2023/04/03 09:33:46;;;;;;;0.50;0.50;;;;;;;16.47;25.60;92115.00;5093963;28;20032;-76
2023/04/03 09:36:12;;;;;;;0.40;0.40;;;;;;;16.38;23.62;92101.91;5093342;28;20427;-77
2023/04/03 09:38:44;;;;;;;0.40;0.40;;;;;;;15.48;23.62;92105.41;5093070;28;20493;-77
2023/04/03 09:41:18;;;;;;;0.40;0.40;;;;;;;15.73;23.79;92107.03;5093288;28;20122;-77
2023/04/03 09:43:54;;;;;;;0.40;0.40;;;;;;;15.64;23.00;92118.75;5092785;28;20424;-77
2023/04/03 09:46:31;;;;;;;0.43;0.43;;;;;;;15.49;24.94;92097.16;5091302;28;20109;-77
2023/04/03 09:49:01;;;;;;;0.40;0.40;;;;;;;15.82;23.71;92093.75;5093474;28;20078;-77
2023/04/03 09:51:28;;;;;;;0.40;0.40;;;;;;;15.99;24.01;92098.84;5092285;28;20036;-78
2023/04/03 09:53:55;;;;;;;0.47;0.47;;;;;;;16.33;24.16;92104.78;5094338;28;20036;-77
2023/04/03 09:56:26;;;;;;;0.47;0.47;;;;;;;16.57;23.63;92095.28;5094782;28;20020;-78
2023/04/03 09:59:13;;;;;;;0.47;0.47;;;;;;;16.65;23.10;92092.53;5095154;28;20036;-77
2023/04/03 10:02:32;;;;;;;0.43;0.43;;;;;;;16.55;22.30;92087.72;5093636;28;20039;-78
2023/04/03 10:04:58;;;;;;;1.27;0.50;;;;;;;16.79;23.51;92084.28;5059548;28;20083;-77
2023/04/03 10:07:33;;;;;;;0.40;0.40;;;;;;;17.15;22.89;92082.63;5092931;28;20489;-78
2023/04/03 10:10:28;;;;;;;0.50;0.50;;;;;;;17.06;20.53;92072.19;5090242;28;20118;-77
2023/04/03 10:13:06;;;;;;;0.30;0.30;;;;;;;16.99;23.00;92087.09;5074724;28;20063;-76
2023/04/03 10:15:44;;;;;;;0.47;0.47;;;;;;;17.30;21.43;92077.75;5092481;28;20038;-76
2023/04/03 10:19:11;;;;;;;0.68;0.60;;;;;;;17.25;19.18;92087.47;5093334;28;20036;-75
2023/04/03 10:22:12;;;;;;;0.50;0.50;;;;;;;17.25;23.68;92082.16;5005126;28;20134;-76
2023/04/03 10:24:46;;;;;;;0.50;0.50;;;;;;;17.55;21.26;92078.41;5090582;28;20089;-76
2023/04/03 10:27:21;;;;;;;0.43;0.43;;;;;;;17.55;19.26;92070.47;5091554;28;20028;-77
2023/04/03 10:30:06;;;;;;;0.50;0.50;;;;;;;16.23;19.62;92066.41;5089241;28;20039;-77
2023/04/03 10:33:00;;;;;;;0.60;0.60;;;;;;;16.41;19.79;92072.22;5090574;28;20028;-76
2023/04/03 10:35:34;;;;;;;0.47;0.47;;;;;;;16.22;19.56;92080.69;5089655;28;20455;-76
2023/04/03 10:38:25;;;;;;;0.50;0.50;;;;;;;15.99;18.98;92059.22;5090584;28;20034;-76
2023/04/03 10:41:00;;;;;;;0.40;0.40;;;;;;;15.74;22.21;92071.63;5090674;28;20058;-77
2023/04/03 10:43:28;;;;;;;0.43;0.43;;;;;;;15.31;19.12;92080.75;5090561;28;20032;-77
2023/04/03 10:46:10;;;;;;;0.88;0.70;;;;;;;15.63;19.87;92054.66;5095432;28;20087;-77
2023/04/03 10:48:44;;;;;;;0.50;0.50;;;;;;;15.48;18.84;92069.22;5112816;28;20040;-77
2023/04/03 10:51:19;;;;;;;0.60;0.60;;;;;;;15.54;20.61;92064.53;5115259;28;20035;-76
2023/04/03 10:54:09;;;;;;;0.40;0.40;;;;;;;15.53;20.83;92063.75;5114258;28;20032;-76
2023/04/03 10:56:52;;;;;;;0.50;0.50;;;;;;;16.09;20.75;92039.53;5115241;28;20035;-76
2023/04/03 10:59:17;;;;;;;0.38;0.38;;;;;;;16.16;19.00;92041.63;5115312;28;20270;-76
2023/04/03 11:01:47;;;;;;;0.50;0.50;;;;;;;16.44;20.63;92036.44;5096080;28;20038;-76
2023/04/03 11:04:17;;;;;;;0.50;0.50;;;;;;;16.85;20.75;92047.81;5114497;28;20118;-76
2023/04/03 11:06:47;;;;;;;0.47;0.47;;;;;;;16.72;19.11;92033.84;5115164;28;20546;-76
2023/04/03 11:09:31;;;;;;;0.50;0.50;;;;;;;16.33;19.08;92027.44;5115067;28;20027;-76
2023/04/03 11:12:24;;;;;;;0.40;0.40;;;;;;;15.97;18.37;92031.63;5096477;28;20027;-76
2023/04/03 11:14:53;;;;;;;0.80;0.70;;;;;;;16.01;20.35;92020.06;5096588;28;20036;-76
2023/04/03 11:17:20;;;;;;;0.50;0.50;;;;;;;16.76;21.72;92034.72;5115105;28;20027;-76
2023/04/03 11:19:54;;;;;;;0.40;0.40;;;;;;;16.63;18.75;92015.47;5114490;28;20035;-77
2023/04/03 11:22:28;;;;;;;0.73;0.60;;;;;;;16.70;19.78;92022.06;5114737;28;20032;-77
2023/04/03 11:25:25;;;;;;;0.40;0.40;;;;;;;16.52;18.83;92018.91;5114898;28;20114;-76
2023/04/03 11:27:57;;;;;;;0.43;0.43;;;;;;;16.01;18.55;92022.72;5102970;28;20044;-77
2023/04/03 11:31:03;;;;;;;0.35;0.35;;;;;;;16.00;18.27;92004.56;5115684;28;20031;-77
2023/04/03 11:33:40;;;;;;;0.60;0.60;;;;;;;15.79;17.84;92007.31;5037803;28;20098;-77
2023/04/03 11:36:12;;;;;;;0.50;0.50;;;;;;;15.94;20.53;92006.66;5115110;28;20096;-77
2023/04/03 11:38:43;;;;;;;0.80;0.55;;;;;;;15.59;18.07;92014.97;5114633;28;20043;-77
2023/04/03 11:41:11;;;;;;;0.43;0.43;;;;;;;15.63;19.43;91999.25;5113478;28;20435;-77
2023/04/03 11:43:54;;;;;;;0.77;0.50;;;;;;;15.80;18.71;91998.28;5095793;28;20050;-77
2023/04/03 11:46:20;;;;;;;1.02;0.50;;;;;;;16.27;18.30;92008.38;5114109;28;20044;-77
2023/04/03 11:48:49;;;;;;;0.50;0.50;;;;;;;16.07;18.43;92004.78;5113789;28;20035;-77
2023/04/03 11:51:17;;;;;;;2.00;0.65;;;;;;;16.05;17.28;92003.56;5095337;28;20078;-77
2023/04/03 11:53:44;;;;;;;0.40;0.40;;;;;;;15.81;17.95;92002.47;5113284;28;20034;-77
2023/04/03 11:56:30;;;;;;;0.75;0.60;;;;;;;16.20;19.64;91992.34;5078382;28;20316;-76
2023/04/03 11:59:14;;;;;;;0.60;0.60;;;;;;;15.90;17.40;91991.81;5113232;28;20040;-77
2023/04/03 12:01:54;;;;;;;0.50;0.50;;;;;;;15.68;17.68;91987.72;5112837;28;20492;-77